sensor_id;sensor_type;location;lat;lon;timestamp;temperature;humidity
13589;DHT22;6865;52.552;13.434;2023-04-12T00:02:17;5.10;99.90
13589;DHT22;6865;52.552;13.434;2023-04-12T00:04:44;5.00;99.90
13589;DHT22;6865;52.552;13.434;2023-04-12T00:07:11;5.00;99.90
13589;DHT22;6865;52.552;13.434;2023-04-12T00:09:38;4.90;99.90
13589;DHT22;6865;52.552;13.434;2023-04-12T00:12:05;5.00;99.90
13589;DHT22;6865;52.552;13.434;2023-04-12T00:14:31;5.00;99.90
13589;DHT22;6865;52.552;13.434;2023-04-12T00:16:58;4.90;99.90
13589;DHT22;6865;52.552;13.434;2023-04-12T00:19:24;5.00;99.90
13589;DHT22;6865;52.552;13.434;2023-04-12T00:21:53;5.10;99.90
13589;DHT22;6865;52.552;13.434;2023-04-12T00:24:19;5.00;99.90
13589;DHT22;6865;52.552;13.434;2023-04-12T00:26:46;5.00;99.90
13589;DHT22;6865;52.552;13.434;2023-04-12T00:29:13;4.90;99.90
13589;DHT22;6865;52.552;13.434;2023-04-12T00:31:39;4.90;99.90
13589;DHT22;6865;52.552;13.434;2023-04-12T00:34:06;4.80;99.90
13589;DHT22;6865;52.552;13.434;2023-04-12T00:36:33;4.80;99.90
13589;DHT22;6865;52.552;13.434;2023-04-12T00:38:59;4.70;99.90
13589;DHT22;6865;52.552;13.434;2023-04-12T00:41:26;4.70;99.90
13589;DHT22;6865;52.552;13.434;2023-04-12T00:43:53;4.40;99.90
13589;DHT22;6865;52.552;13.434;2023-04-12T00:46:20;4.60;99.90
13589;DHT22;6865;52.552;13.434;2023-04-12T00:48:47;4.50;99.90
13589;DHT22;6865;52.552;13.434;2023-04-12T00:51:14;4.60;99.90
13589;DHT22;6865;52.552;13.434;2023-04-12T00:53:43;4.80;99.90
13589;DHT22;6865;52.552;13.434;2023-04-12T00:56:11;4.90;99.90
13589;DHT22;6865;52.552;13.434;2023-04-12T00:58:38;4.90;99.90
13589;DHT22;6865;52.552;13.434;2023-04-12T01:01:04;5.00;99.90
13589;DHT22;6865;52.552;13.434;2023-04-12T01:03:31;5.00;99.90
13589;DHT22;6865;52.552;13.434;2023-04-12T01:06:17;5.00;99.90
13589;DHT22;6865;52.552;13.434;2023-04-12T01:09:05;3.50;99.90
13589;DHT22;6865;52.552;13.434;2023-04-12T01:11:43;4.90;99.90
13589;DHT22;6865;52.552;13.434;2023-04-12T01:17:03;5.00;99.90
13589;DHT22;6865;52.552;13.434;2023-04-12T01:22:44;4.90;99.90
13589;DHT22;6865;52.552;13.434;2023-04-12T01:25:37;4.80;99.90
13589;DHT22;6865;52.552;13.434;2023-04-12T01:28:06;4.70;99.90
13589;DHT22;6865;52.552;13.434;2023-04-12T01:30:35;4.60;99.90
13589;DHT22;6865;52.552;13.434;2023-04-12T01:33:04;4.60;99.90
13589;DHT22;6865;52.552;13.434;2023-04-12T01:35:32;4.50;99.90
13589;DHT22;6865;52.552;13.434;2023-04-12T01:38:01;4.40;99.90
13589;DHT22;6865;52.552;13.434;2023-04-12T01:40:29;4.40;99.90
13589;DHT22;6865;52.552;13.434;2023-04-12T01:43:10;4.50;99.90
13589;DHT22;6865;52.552;13.434;2023-04-12T01:45:38;4.50;99.90
13589;DHT22;6865;52.552;13.434;2023-04-12T01:48:07;4.50;99.90
13589;DHT22;6865;52.552;13.434;2023-04-12T01:53:59;4.80;99.90
13589;DHT22;6865;52.552;13.434;2023-04-12T01:55:59;4.50;99.90
13589;DHT22;6865;52.552;13.434;2023-04-12T01:58:30;4.40;99.90
13589;DHT22;6865;52.552;13.434;2023-04-12T02:00:57;4.40;99.90
13589;DHT22;6865;52.552;13.434;2023-04-12T02:03:25;4.30;99.90
13589;DHT22;6865;52.552;13.434;2023-04-12T02:05:57;4.30;99.90
13589;DHT22;6865;52.552;13.434;2023-04-12T02:08:24;4.20;99.90
13589;DHT22;6865;52.552;13.434;2023-04-12T02:10:51;4.20;99.90
13589;DHT22;6865;52.552;13.434;2023-04-12T02:13:18;4.20;99.90
13589;DHT22;6865;52.552;13.434;2023-04-12T02:15:44;4.40;99.90
13589;DHT22;6865;52.552;13.434;2023-04-12T02:18:11;4.20;99.90
13589;DHT22;6865;52.552;13.434;2023-04-12T02:20:39;4.20;99.90
13589;DHT22;6865;52.552;13.434;2023-04-12T02:23:06;4.30;99.90
13589;DHT22;6865;52.552;13.434;2023-04-12T02:25:32;4.30;99.90
13589;DHT22;6865;52.552;13.434;2023-04-12T02:28:01;4.30;99.90
13589;DHT22;6865;52.552;13.434;2023-04-12T02:30:27;4.30;99.90
13589;DHT22;6865;52.552;13.434;2023-04-12T02:32:54;4.30;99.90
13589;DHT22;6865;52.552;13.434;2023-04-12T02:35:21;4.20;99.90
13589;DHT22;6865;52.552;13.434;2023-04-12T02:37:48;4.10;99.90
13589;DHT22;6865;52.552;13.434;2023-04-12T02:40:14;4.10;99.90
13589;DHT22;6865;52.552;13.434;2023-04-12T02:42:42;4.10;99.90
13589;DHT22;6865;52.552;13.434;2023-04-12T02:45:10;4.10;99.90
13589;DHT22;6865;52.552;13.434;2023-04-12T02:47:37;4.10;99.90
13589;DHT22;6865;52.552;13.434;2023-04-12T02:50:04;4.10;99.90
13589;DHT22;6865;52.552;13.434;2023-04-12T02:52:31;4.10;99.90
13589;DHT22;6865;52.552;13.434;2023-04-12T02:54:59;4.10;99.90
13589;DHT22;6865;52.552;13.434;2023-04-12T02:57:26;4.00;99.90
13589;DHT22;6865;52.552;13.434;2023-04-12T02:59:53;4.20;99.90
13589;DHT22;6865;52.552;13.434;2023-04-12T03:02:20;4.20;99.90
13589;DHT22;6865;52.552;13.434;2023-04-12T03:04:48;4.20;99.90
13589;DHT22;6865;52.552;13.434;2023-04-12T03:07:17;4.00;99.90
13589;DHT22;6865;52.552;13.434;2023-04-12T03:09:49;4.10;99.90
13589;DHT22;6865;52.552;13.434;2023-04-12T03:12:16;4.10;99.90
13589;DHT22;6865;52.552;13.434;2023-04-12T03:14:42;4.10;99.90
13589;DHT22;6865;52.552;13.434;2023-04-12T03:17:09;4.10;99.90
13589;DHT22;6865;52.552;13.434;2023-04-12T03:19:36;4.10;99.90
13589;DHT22;6865;52.552;13.434;2023-04-12T03:22:03;4.10;99.90
13589;DHT22;6865;52.552;13.434;2023-04-12T03:24:30;5.30;99.90
13589;DHT22;6865;52.552;13.434;2023-04-12T03:27:01;4.00;99.90
13589;DHT22;6865;52.552;13.434;2023-04-12T03:29:28;3.90;99.90
13589;DHT22;6865;52.552;13.434;2023-04-12T03:31:56;3.80;99.90
13589;DHT22;6865;52.552;13.434;2023-04-12T03:34:24;3.70;99.90
13589;DHT22;6865;52.552;13.434;2023-04-12T03:36:53;3.80;99.90
13589;DHT22;6865;52.552;13.434;2023-04-12T03:39:21;3.70;99.90
13589;DHT22;6865;52.552;13.434;2023-04-12T03:41:48;3.80;99.90
13589;DHT22;6865;52.552;13.434;2023-04-12T03:44:15;3.80;99.90
13589;DHT22;6865;52.552;13.434;2023-04-12T03:46:42;3.90;99.90
13589;DHT22;6865;52.552;13.434;2023-04-12T03:49:08;3.90;99.90
13589;DHT22;6865;52.552;13.434;2023-04-12T03:51:35;3.90;99.90
13589;DHT22;6865;52.552;13.434;2023-04-12T03:54:02;3.90;99.90
13589;DHT22;6865;52.552;13.434;2023-04-12T03:56:29;3.90;99.90
13589;DHT22;6865;52.552;13.434;2023-04-12T03:58:56;3.90;99.90
13589;DHT22;6865;52.552;13.434;2023-04-12T04:01:23;3.90;99.90
13589;DHT22;6865;52.552;13.434;2023-04-12T04:03:49;3.80;99.90
13589;DHT22;6865;52.552;13.434;2023-04-12T04:06:16;3.80;99.90
13589;DHT22;6865;52.552;13.434;2023-04-12T04:08:43;3.70;99.90
13589;DHT22;6865;52.552;13.434;2023-04-12T04:11:11;3.50;99.90
13589;DHT22;6865;52.552;13.434;2023-04-12T04:13:38;3.60;99.90
13589;DHT22;6865;52.552;13.434;2023-04-12T04:16:05;3.50;99.90
13589;DHT22;6865;52.552;13.434;2023-04-12T04:18:32;3.50;99.90
13589;DHT22;6865;52.552;13.434;2023-04-12T04:21:01;3.60;99.90
13589;DHT22;6865;52.552;13.434;2023-04-12T04:23:29;3.50;99.90
13589;DHT22;6865;52.552;13.434;2023-04-12T04:26:02;3.40;99.90
13589;DHT22;6865;52.552;13.434;2023-04-12T04:28:30;3.70;99.90
13589;DHT22;6865;52.552;13.434;2023-04-12T04:31:00;3.50;99.90
13589;DHT22;6865;52.552;13.434;2023-04-12T04:33:32;3.50;99.90
13589;DHT22;6865;52.552;13.434;2023-04-12T04:35:58;3.50;99.90
13589;DHT22;6865;52.552;13.434;2023-04-12T04:38:25;3.50;99.90
13589;DHT22;6865;52.552;13.434;2023-04-12T04:40:52;3.50;99.90
13589;DHT22;6865;52.552;13.434;2023-04-12T04:43:19;3.60;99.90
13589;DHT22;6865;52.552;13.434;2023-04-12T04:45:51;3.60;99.90
13589;DHT22;6865;52.552;13.434;2023-04-12T04:48:20;3.70;99.90
13589;DHT22;6865;52.552;13.434;2023-04-12T04:50:46;3.70;99.90
13589;DHT22;6865;52.552;13.434;2023-04-12T04:53:16;3.70;99.90
13589;DHT22;6865;52.552;13.434;2023-04-12T04:55:44;3.70;99.90
13589;DHT22;6865;52.552;13.434;2023-04-12T04:58:10;3.70;99.90
13589;DHT22;6865;52.552;13.434;2023-04-12T05:00:37;3.70;99.90
13589;DHT22;6865;52.552;13.434;2023-04-12T05:03:04;3.80;99.90
13589;DHT22;6865;52.552;13.434;2023-04-12T05:05:31;3.90;99.90
13589;DHT22;6865;52.552;13.434;2023-04-12T05:07:57;3.90;99.90
13589;DHT22;6865;52.552;13.434;2023-04-12T05:10:24;4.00;99.90
13589;DHT22;6865;52.552;13.434;2023-04-12T05:12:51;3.90;99.90
13589;DHT22;6865;52.552;13.434;2023-04-12T05:15:18;3.90;99.90
13589;DHT22;6865;52.552;13.434;2023-04-12T05:17:45;4.00;99.90
13589;DHT22;6865;52.552;13.434;2023-04-12T05:20:11;4.10;99.90
13589;DHT22;6865;52.552;13.434;2023-04-12T05:22:38;4.20;99.90
13589;DHT22;6865;52.552;13.434;2023-04-12T05:25:05;4.20;99.90
13589;DHT22;6865;52.552;13.434;2023-04-12T05:27:32;4.20;99.90
13589;DHT22;6865;52.552;13.434;2023-04-12T05:29:59;4.30;99.90
13589;DHT22;6865;52.552;13.434;2023-04-12T05:32:25;4.30;99.90
13589;DHT22;6865;52.552;13.434;2023-04-12T05:34:52;4.30;99.90
13589;DHT22;6865;52.552;13.434;2023-04-12T05:37:19;2.60;99.90
13589;DHT22;6865;52.552;13.434;2023-04-12T05:39:45;4.10;99.90
13589;DHT22;6865;52.552;13.434;2023-04-12T05:42:12;4.60;99.90
13589;DHT22;6865;52.552;13.434;2023-04-12T05:44:38;5.00;99.90
13589;DHT22;6865;52.552;13.434;2023-04-12T05:47:05;5.90;99.90
13589;DHT22;6865;52.552;13.434;2023-04-12T05:49:32;6.90;99.90
13589;DHT22;6865;52.552;13.434;2023-04-12T05:51:58;7.90;99.90
13589;DHT22;6865;52.552;13.434;2023-04-12T05:54:25;8.60;99.90
13589;DHT22;6865;52.552;13.434;2023-04-12T05:56:52;8.60;99.90
13589;DHT22;6865;52.552;13.434;2023-04-12T05:59:22;8.50;99.90
13589;DHT22;6865;52.552;13.434;2023-04-12T06:01:49;8.30;99.90
13589;DHT22;6865;52.552;13.434;2023-04-12T06:04:15;8.40;99.90
13589;DHT22;6865;52.552;13.434;2023-04-12T06:06:42;8.50;99.90
13589;DHT22;6865;52.552;13.434;2023-04-12T06:09:09;8.70;99.90
13589;DHT22;6865;52.552;13.434;2023-04-12T06:11:36;9.00;99.90
13589;DHT22;6865;52.552;13.434;2023-04-12T06:14:05;9.30;99.90
13589;DHT22;6865;52.552;13.434;2023-04-12T06:16:31;9.30;99.90
13589;DHT22;6865;52.552;13.434;2023-04-12T06:18:58;9.40;99.90
13589;DHT22;6865;52.552;13.434;2023-04-12T06:21:25;9.90;99.90
13589;DHT22;6865;52.552;13.434;2023-04-12T06:23:52;10.10;99.90
13589;DHT22;6865;52.552;13.434;2023-04-12T06:26:18;10.20;99.90
13589;DHT22;6865;52.552;13.434;2023-04-12T06:28:45;10.50;99.90
13589;DHT22;6865;52.552;13.434;2023-04-12T06:31:12;10.80;99.90
13589;DHT22;6865;52.552;13.434;2023-04-12T06:33:39;11.00;99.90
13589;DHT22;6865;52.552;13.434;2023-04-12T06:36:06;11.50;99.90
13589;DHT22;6865;52.552;13.434;2023-04-12T06:38:32;11.60;99.90
13589;DHT22;6865;52.552;13.434;2023-04-12T06:40:59;12.10;99.90
13589;DHT22;6865;52.552;13.434;2023-04-12T06:43:26;12.40;99.30
13589;DHT22;6865;52.552;13.434;2023-04-12T06:45:53;12.50;98.80
13589;DHT22;6865;52.552;13.434;2023-04-12T06:48:19;12.50;99.10
13589;DHT22;6865;52.552;13.434;2023-04-12T06:50:46;12.60;98.00
13589;DHT22;6865;52.552;13.434;2023-04-12T06:53:13;12.60;98.00
13589;DHT22;6865;52.552;13.434;2023-04-12T06:55:40;12.30;96.90
13589;DHT22;6865;52.552;13.434;2023-04-12T06:58:07;12.50;97.90
13589;DHT22;6865;52.552;13.434;2023-04-12T07:00:33;12.40;96.30
13589;DHT22;6865;52.552;13.434;2023-04-12T07:03:00;12.40;96.30
13589;DHT22;6865;52.552;13.434;2023-04-12T07:05:27;12.60;96.00
13589;DHT22;6865;52.552;13.434;2023-04-12T07:07:54;12.50;94.70
13589;DHT22;6865;52.552;13.434;2023-04-12T07:10:20;12.50;95.10
13589;DHT22;6865;52.552;13.434;2023-04-12T07:12:47;11.50;95.70
13589;DHT22;6865;52.552;13.434;2023-04-12T07:15:14;11.50;96.50
13589;DHT22;6865;52.552;13.434;2023-04-12T07:17:41;11.80;97.10
13589;DHT22;6865;52.552;13.434;2023-04-12T07:20:08;12.00;97.20
13589;DHT22;6865;52.552;13.434;2023-04-12T07:22:35;12.20;96.20
13589;DHT22;6865;52.552;13.434;2023-04-12T07:25:01;12.50;96.60
13589;DHT22;6865;52.552;13.434;2023-04-12T07:27:30;12.60;95.30
13589;DHT22;6865;52.552;13.434;2023-04-12T07:29:57;12.30;95.00
13589;DHT22;6865;52.552;13.434;2023-04-12T07:32:24;12.70;95.10
13589;DHT22;6865;52.552;13.434;2023-04-12T07:34:51;12.30;94.90
13589;DHT22;6865;52.552;13.434;2023-04-12T07:37:18;12.40;94.60
13589;DHT22;6865;52.552;13.434;2023-04-12T07:39:45;11.80;95.70
13589;DHT22;6865;52.552;13.434;2023-04-12T07:42:12;11.10;97.10
13589;DHT22;6865;52.552;13.434;2023-04-12T07:44:39;9.80;98.50
13589;DHT22;6865;52.552;13.434;2023-04-12T07:47:05;10.80;99.40
13589;DHT22;6865;52.552;13.434;2023-04-12T07:49:32;10.50;99.50
13589;DHT22;6865;52.552;13.434;2023-04-12T07:51:59;10.40;99.90
13589;DHT22;6865;52.552;13.434;2023-04-12T07:54:26;10.40;99.90
13589;DHT22;6865;52.552;13.434;2023-04-12T07:56:57;10.10;99.90
13589;DHT22;6865;52.552;13.434;2023-04-12T07:59:24;10.30;99.90
13589;DHT22;6865;52.552;13.434;2023-04-12T08:01:51;11.20;99.90
13589;DHT22;6865;52.552;13.434;2023-04-12T08:04:18;10.50;99.30
13589;DHT22;6865;52.552;13.434;2023-04-12T08:06:44;10.50;99.40
13589;DHT22;6865;52.552;13.434;2023-04-12T08:09:11;10.50;99.30
13589;DHT22;6865;52.552;13.434;2023-04-12T08:11:38;10.50;98.30
13589;DHT22;6865;52.552;13.434;2023-04-12T08:14:05;10.60;98.00
13589;DHT22;6865;52.552;13.434;2023-04-12T08:16:31;10.50;98.30
13589;DHT22;6865;52.552;13.434;2023-04-12T08:18:58;10.70;98.30
13589;DHT22;6865;52.552;13.434;2023-04-12T08:21:25;10.70;98.70
13589;DHT22;6865;52.552;13.434;2023-04-12T08:23:53;10.70;98.30
13589;DHT22;6865;52.552;13.434;2023-04-12T08:26:19;11.00;97.80
13589;DHT22;6865;52.552;13.434;2023-04-12T08:28:46;11.20;98.10
13589;DHT22;6865;52.552;13.434;2023-04-12T08:31:14;11.30;97.70
13589;DHT22;6865;52.552;13.434;2023-04-12T08:33:41;11.40;97.20
13589;DHT22;6865;52.552;13.434;2023-04-12T08:36:08;11.50;95.40
13589;DHT22;6865;52.552;13.434;2023-04-12T08:38:36;11.40;95.00
13589;DHT22;6865;52.552;13.434;2023-04-12T08:41:11;11.50;94.40
13589;DHT22;6865;52.552;13.434;2023-04-12T08:43:42;11.60;94.10
13589;DHT22;6865;52.552;13.434;2023-04-12T08:46:11;11.70;94.60
13589;DHT22;6865;52.552;13.434;2023-04-12T08:48:46;11.90;93.70
13589;DHT22;6865;52.552;13.434;2023-04-12T08:51:17;11.80;92.60
13589;DHT22;6865;52.552;13.434;2023-04-12T08:53:44;11.90;92.30
13589;DHT22;6865;52.552;13.434;2023-04-12T08:56:11;12.10;92.20
13589;DHT22;6865;52.552;13.434;2023-04-12T08:58:40;12.20;91.60
13589;DHT22;6865;52.552;13.434;2023-04-12T09:01:10;12.20;90.70
13589;DHT22;6865;52.552;13.434;2023-04-12T09:03:42;12.30;90.70
13589;DHT22;6865;52.552;13.434;2023-04-12T09:06:10;12.40;88.60
13589;DHT22;6865;52.552;13.434;2023-04-12T09:08:50;12.40;89.50
13589;DHT22;6865;52.552;13.434;2023-04-12T09:11:25;12.50;89.50
13589;DHT22;6865;52.552;13.434;2023-04-12T09:13:53;12.60;87.90
13589;DHT22;6865;52.552;13.434;2023-04-12T09:16:36;12.50;87.50
13589;DHT22;6865;52.552;13.434;2023-04-12T09:19:04;12.50;86.00
13589;DHT22;6865;52.552;13.434;2023-04-12T09:21:32;12.50;85.00
13589;DHT22;6865;52.552;13.434;2023-04-12T09:24:07;12.50;83.50
13589;DHT22;6865;52.552;13.434;2023-04-12T09:26:38;12.60;83.90
13589;DHT22;6865;52.552;13.434;2023-04-12T09:29:22;12.60;82.50
13589;DHT22;6865;52.552;13.434;2023-04-12T09:31:55;12.60;81.10
13589;DHT22;6865;52.552;13.434;2023-04-12T09:34:21;12.60;81.70
13589;DHT22;6865;52.552;13.434;2023-04-12T09:36:50;12.70;81.30
13589;DHT22;6865;52.552;13.434;2023-04-12T09:39:17;12.80;79.50
13589;DHT22;6865;52.552;13.434;2023-04-12T09:41:44;12.70;76.10
13589;DHT22;6865;52.552;13.434;2023-04-12T09:44:27;12.80;77.30
13589;DHT22;6865;52.552;13.434;2023-04-12T09:46:57;12.60;76.20
13589;DHT22;6865;52.552;13.434;2023-04-12T09:49:42;12.90;76.50
13589;DHT22;6865;52.552;13.434;2023-04-12T09:52:10;13.10;75.20
13589;DHT22;6865;52.552;13.434;2023-04-12T09:54:45;13.20;74.70
13589;DHT22;6865;52.552;13.434;2023-04-12T09:57:12;13.10;73.30
13589;DHT22;6865;52.552;13.434;2023-04-12T09:59:43;13.10;72.80
13589;DHT22;6865;52.552;13.434;2023-04-12T10:02:15;13.10;73.00
13589;DHT22;6865;52.552;13.434;2023-04-12T10:04:43;13.30;74.40
13589;DHT22;6865;52.552;13.434;2023-04-12T10:07:11;13.40;72.60
13589;DHT22;6865;52.552;13.434;2023-04-12T10:09:40;13.60;72.00
13589;DHT22;6865;52.552;13.434;2023-04-12T10:12:08;13.70;70.70
13589;DHT22;6865;52.552;13.434;2023-04-12T10:14:34;13.70;70.80
13589;DHT22;6865;52.552;13.434;2023-04-12T10:17:03;13.70;69.50
13589;DHT22;6865;52.552;13.434;2023-04-12T10:19:31;13.70;68.50
13589;DHT22;6865;52.552;13.434;2023-04-12T10:21:59;13.80;69.10
13589;DHT22;6865;52.552;13.434;2023-04-12T10:24:27;13.80;69.60
13589;DHT22;6865;52.552;13.434;2023-04-12T10:26:55;13.80;69.20
13589;DHT22;6865;52.552;13.434;2023-04-12T10:29:27;13.90;69.30
13589;DHT22;6865;52.552;13.434;2023-04-12T10:31:57;13.90;68.70
13589;DHT22;6865;52.552;13.434;2023-04-12T10:34:30;14.00;68.40
13589;DHT22;6865;52.552;13.434;2023-04-12T10:37:00;14.00;68.70
13589;DHT22;6865;52.552;13.434;2023-04-12T10:39:41;14.10;68.60
13589;DHT22;6865;52.552;13.434;2023-04-12T10:42:19;14.00;68.50
13589;DHT22;6865;52.552;13.434;2023-04-12T10:44:49;14.10;67.60
13589;DHT22;6865;52.552;13.434;2023-04-12T10:48:10;14.20;67.90
13589;DHT22;6865;52.552;13.434;2023-04-12T10:50:32;14.30;67.10
13589;DHT22;6865;52.552;13.434;2023-04-12T10:55:44;14.30;67.30
13589;DHT22;6865;52.552;13.434;2023-04-12T11:01:16;14.50;66.00
13589;DHT22;6865;52.552;13.434;2023-04-12T11:04:16;14.60;64.60
13589;DHT22;6865;52.552;13.434;2023-04-12T11:06:53;14.60;64.90
13589;DHT22;6865;52.552;13.434;2023-04-12T11:14:37;14.60;63.40
13589;DHT22;6865;52.552;13.434;2023-04-12T11:19:38;14.60;64.00
13589;DHT22;6865;52.552;13.434;2023-04-12T11:22:11;14.70;64.50
13589;DHT22;6865;52.552;13.434;2023-04-12T11:24:45;14.70;65.10
13589;DHT22;6865;52.552;13.434;2023-04-12T11:27:14;14.80;64.70
13589;DHT22;6865;52.552;13.434;2023-04-12T11:29:46;14.80;65.40
13589;DHT22;6865;52.552;13.434;2023-04-12T11:32:13;14.80;64.20
13589;DHT22;6865;52.552;13.434;2023-04-12T11:34:43;14.90;63.80
13589;DHT22;6865;52.552;13.434;2023-04-12T11:37:10;14.80;64.80
13589;DHT22;6865;52.552;13.434;2023-04-12T11:39:42;15.10;64.70
13589;DHT22;6865;52.552;13.434;2023-04-12T11:42:19;15.20;64.20
13589;DHT22;6865;52.552;13.434;2023-04-12T11:44:46;15.10;63.00
13589;DHT22;6865;52.552;13.434;2023-04-12T11:47:25;15.10;63.50
13589;DHT22;6865;52.552;13.434;2023-04-12T11:49:54;15.10;62.90
13589;DHT22;6865;52.552;13.434;2023-04-12T11:52:27;15.30;63.20
13589;DHT22;6865;52.552;13.434;2023-04-12T11:54:55;15.30;63.00
13589;DHT22;6865;52.552;13.434;2023-04-12T11:57:24;16.70;64.70
13589;DHT22;6865;52.552;13.434;2023-04-12T11:59:51;15.30;62.30
13589;DHT22;6865;52.552;13.434;2023-04-12T12:02:19;15.40;62.00
13589;DHT22;6865;52.552;13.434;2023-04-12T12:04:50;15.40;62.50
13589;DHT22;6865;52.552;13.434;2023-04-12T12:07:18;15.40;61.70
13589;DHT22;6865;52.552;13.434;2023-04-12T12:09:48;15.30;62.20
13589;DHT22;6865;52.552;13.434;2023-04-12T12:12:15;15.30;62.70
13589;DHT22;6865;52.552;13.434;2023-04-12T12:14:43;15.40;61.90
13589;DHT22;6865;52.552;13.434;2023-04-12T12:17:14;15.60;60.90
13589;DHT22;6865;52.552;13.434;2023-04-12T12:19:43;15.60;59.90
13589;DHT22;6865;52.552;13.434;2023-04-12T12:22:18;15.60;59.50
13589;DHT22;6865;52.552;13.434;2023-04-12T12:25:05;15.40;59.90
13589;DHT22;6865;52.552;13.434;2023-04-12T12:27:35;15.40;60.50
13589;DHT22;6865;52.552;13.434;2023-04-12T12:30:05;15.50;60.20
13589;DHT22;6865;52.552;13.434;2023-04-12T12:32:34;15.50;60.00
13589;DHT22;6865;52.552;13.434;2023-04-12T12:35:01;15.40;60.00
13589;DHT22;6865;52.552;13.434;2023-04-12T12:37:29;15.40;60.30
13589;DHT22;6865;52.552;13.434;2023-04-12T12:40:07;15.50;60.10
13589;DHT22;6865;52.552;13.434;2023-04-12T12:42:54;15.60;59.30
13589;DHT22;6865;52.552;13.434;2023-04-12T12:45:23;15.70;60.30
13589;DHT22;6865;52.552;13.434;2023-04-12T12:47:54;15.80;59.60
13589;DHT22;6865;52.552;13.434;2023-04-12T12:50:26;16.00;59.40
13589;DHT22;6865;52.552;13.434;2023-04-12T12:52:54;16.00;58.80
13589;DHT22;6865;52.552;13.434;2023-04-12T12:55:22;16.00;58.90
13589;DHT22;6865;52.552;13.434;2023-04-12T12:57:51;15.90;58.50
13589;DHT22;6865;52.552;13.434;2023-04-12T13:00:33;16.00;59.10
13589;DHT22;6865;52.552;13.434;2023-04-12T13:02:59;15.90;59.40
13589;DHT22;6865;52.552;13.434;2023-04-12T13:05:27;16.10;60.10
13589;DHT22;6865;52.552;13.434;2023-04-12T13:07:54;16.10;59.60
13589;DHT22;6865;52.552;13.434;2023-04-12T13:10:21;16.30;59.60
13589;DHT22;6865;52.552;13.434;2023-04-12T13:12:48;16.00;59.20
13589;DHT22;6865;52.552;13.434;2023-04-12T13:15:15;16.00;58.90
13589;DHT22;6865;52.552;13.434;2023-04-12T13:17:51;15.60;59.00
13589;DHT22;6865;52.552;13.434;2023-04-12T13:20:21;15.80;58.70
13589;DHT22;6865;52.552;13.434;2023-04-12T13:22:49;15.90;59.30
13589;DHT22;6865;52.552;13.434;2023-04-12T13:25:17;16.10;59.20
13589;DHT22;6865;52.552;13.434;2023-04-12T13:27:47;16.20;58.90
13589;DHT22;6865;52.552;13.434;2023-04-12T13:30:14;16.40;59.40
13589;DHT22;6865;52.552;13.434;2023-04-12T13:32:41;16.70;58.50
13589;DHT22;6865;52.552;13.434;2023-04-12T13:35:07;16.70;57.70
13589;DHT22;6865;52.552;13.434;2023-04-12T13:37:34;16.50;58.00
13589;DHT22;6865;52.552;13.434;2023-04-12T13:40:01;16.60;58.60
13589;DHT22;6865;52.552;13.434;2023-04-12T13:42:28;16.60;58.70
13589;DHT22;6865;52.552;13.434;2023-04-12T13:44:55;16.30;57.70
13589;DHT22;6865;52.552;13.434;2023-04-12T13:47:22;16.20;58.20
13589;DHT22;6865;52.552;13.434;2023-04-12T13:49:49;16.10;58.00
13589;DHT22;6865;52.552;13.434;2023-04-12T13:52:16;16.00;58.60
13589;DHT22;6865;52.552;13.434;2023-04-12T13:54:42;16.20;59.00
13589;DHT22;6865;52.552;13.434;2023-04-12T13:57:09;16.20;58.70
13589;DHT22;6865;52.552;13.434;2023-04-12T13:59:36;16.00;58.40
13589;DHT22;6865;52.552;13.434;2023-04-12T14:02:02;16.00;59.20
13589;DHT22;6865;52.552;13.434;2023-04-12T14:04:30;15.80;58.70
13589;DHT22;6865;52.552;13.434;2023-04-12T14:06:57;15.80;59.30
13589;DHT22;6865;52.552;13.434;2023-04-12T14:09:29;16.00;59.40
13589;DHT22;6865;52.552;13.434;2023-04-12T14:11:57;15.80;59.50
13589;DHT22;6865;52.552;13.434;2023-04-12T14:14:24;15.80;60.10
13589;DHT22;6865;52.552;13.434;2023-04-12T14:16:52;15.60;59.90
13589;DHT22;6865;52.552;13.434;2023-04-12T14:19:21;15.40;60.40
13589;DHT22;6865;52.552;13.434;2023-04-12T14:21:48;15.40;60.90
13589;DHT22;6865;52.552;13.434;2023-04-12T14:24:16;15.30;61.40
13589;DHT22;6865;52.552;13.434;2023-04-12T14:26:43;15.20;61.90
13589;DHT22;6865;52.552;13.434;2023-04-12T14:29:11;15.10;62.50
13589;DHT22;6865;52.552;13.434;2023-04-12T14:31:38;15.10;63.00
13589;DHT22;6865;52.552;13.434;2023-04-12T14:34:05;15.10;62.70
13589;DHT22;6865;52.552;13.434;2023-04-12T14:36:33;15.10;62.60
13589;DHT22;6865;52.552;13.434;2023-04-12T14:39:00;14.90;63.00
13589;DHT22;6865;52.552;13.434;2023-04-12T14:41:29;15.00;63.40
13589;DHT22;6865;52.552;13.434;2023-04-12T14:43:58;15.00;63.20
13589;DHT22;6865;52.552;13.434;2023-04-12T14:46:25;14.90;63.20
13589;DHT22;6865;52.552;13.434;2023-04-12T14:48:54;14.90;64.30
13589;DHT22;6865;52.552;13.434;2023-04-12T14:51:22;14.60;66.20
13589;DHT22;6865;52.552;13.434;2023-04-12T14:53:49;14.70;66.90
13589;DHT22;6865;52.552;13.434;2023-04-12T14:56:20;14.50;67.30
13589;DHT22;6865;52.552;13.434;2023-04-12T14:58:54;14.50;67.70
13589;DHT22;6865;52.552;13.434;2023-04-12T15:01:22;14.40;67.80
13589;DHT22;6865;52.552;13.434;2023-04-12T15:03:52;14.40;66.90
13589;DHT22;6865;52.552;13.434;2023-04-12T15:06:22;14.30;65.90
13589;DHT22;6865;52.552;13.434;2023-04-12T15:08:52;14.40;65.60
13589;DHT22;6865;52.552;13.434;2023-04-12T15:11:22;14.30;65.20
13589;DHT22;6865;52.552;13.434;2023-04-12T15:13:53;14.30;65.00
13589;DHT22;6865;52.552;13.434;2023-04-12T15:16:21;14.30;65.20
13589;DHT22;6865;52.552;13.434;2023-04-12T15:18:49;14.30;65.40
13589;DHT22;6865;52.552;13.434;2023-04-12T15:21:16;14.20;65.90
13589;DHT22;6865;52.552;13.434;2023-04-12T15:23:43;14.10;68.10
13589;DHT22;6865;52.552;13.434;2023-04-12T15:26:10;14.00;70.60
13589;DHT22;6865;52.552;13.434;2023-04-12T15:28:39;13.80;71.20
13589;DHT22;6865;52.552;13.434;2023-04-12T15:31:06;13.60;73.70
13589;DHT22;6865;52.552;13.434;2023-04-12T15:33:33;13.50;75.00
13589;DHT22;6865;52.552;13.434;2023-04-12T15:36:01;13.40;76.30
13589;DHT22;6865;52.552;13.434;2023-04-12T15:38:28;13.30;79.00
13589;DHT22;6865;52.552;13.434;2023-04-12T15:40:58;13.10;81.70
13589;DHT22;6865;52.552;13.434;2023-04-12T15:43:25;13.00;84.10
13589;DHT22;6865;52.552;13.434;2023-04-12T15:45:52;12.80;85.30
13589;DHT22;6865;52.552;13.434;2023-04-12T15:48:21;12.90;85.60
13589;DHT22;6865;52.552;13.434;2023-04-12T15:50:49;12.80;85.90
13589;DHT22;6865;52.552;13.434;2023-04-12T15:53:18;12.80;87.40
13589;DHT22;6865;52.552;13.434;2023-04-12T15:55:45;12.70;88.40
13589;DHT22;6865;52.552;13.434;2023-04-12T15:58:13;12.70;89.80
13589;DHT22;6865;52.552;13.434;2023-04-12T16:00:40;12.70;90.30
13589;DHT22;6865;52.552;13.434;2023-04-12T16:03:06;12.70;91.30
13589;DHT22;6865;52.552;13.434;2023-04-12T16:05:34;12.80;91.20
13589;DHT22;6865;52.552;13.434;2023-04-12T16:08:01;12.70;92.00
13589;DHT22;6865;52.552;13.434;2023-04-12T16:10:28;12.80;93.40